Time;durP1;ratioP1;P1;durP2;ratioP2;P2;SDS_P1;SDS_P2;PMS_P1;PMS_P2;Temp;Humidity;BMP_temperature;BMP_pressure;BME280_temperature;BME280_humidity;BME280_pressure;Samples;Min_cycle;Max_cycle;Signal;HPM_P1;HPM_P2
2023/10/24 00:01:55;;;;;;;;;;;20.80;91.40;;;;;;6277376;22;43400;-75
2023/10/24 00:04:21;;;;;;;;;;;20.70;91.20;;;;;;6277881;22;43833;-75
2023/10/24 00:06:46;;;;;;;;;;;20.70;91.30;;;;;;6276942;22;43100;-75
2023/10/24 00:09:12;;;;;;;;;;;20.70;91.30;;;;;;6276915;22;43003;-74
2023/10/24 00:11:37;;;;;;;;;;;20.50;91.40;;;;;;6277760;22;42938;-77
2023/10/24 00:14:03;;;;;;;;;;;20.50;91.60;;;;;;6277049;22;43516;-74
2023/10/24 00:16:29;;;;;;;;;;;20.40;91.70;;;;;;6277164;22;42835;-75
2023/10/24 00:18:54;;;;;;;;;;;20.40;91.90;;;;;;6277327;22;43663;-75
2023/10/24 00:21:20;;;;;;;;;;;20.60;91.90;;;;;;6277935;22;42840;-76
2023/10/24 00:23:45;;;;;;;;;;;20.40;91.50;;;;;;6276338;22;43805;-76
2023/10/24 00:26:11;;;;;;;;;;;20.80;91.50;;;;;;6277166;22;42780;-75
2023/10/24 00:28:36;;;;;;;;;;;20.70;91.40;;;;;;6277047;22;43627;-75
2023/10/24 00:31:03;;;;;;;;;;;20.70;91.40;;;;;;6277009;22;42869;-75
2023/10/24 00:33:29;;;;;;;;;;;20.50;91.30;;;;;;6277648;22;42938;-75
2023/10/24 00:35:54;;;;;;;;;;;20.60;91.60;;;;;;6278145;22;42882;-76
2023/10/24 00:38:20;;;;;;;;;;;20.50;91.60;;;;;;6277392;22;43370;-75
2023/10/24 00:40:45;;;;;;;;;;;20.60;91.60;;;;;;6278359;22;42931;-76
2023/10/24 00:43:11;;;;;;;;;;;20.50;91.70;;;;;;6276887;22;42871;-74
2023/10/24 00:45:36;;;;;;;;;;;20.40;91.70;;;;;;6277345;22;42958;-75
2023/10/24 00:48:03;;;;;;;;;;;20.50;91.90;;;;;;6276703;22;42895;-75
2023/10/24 00:50:30;;;;;;;;;;;20.30;91.90;;;;;;6277532;22;42772;-75
2023/10/24 00:52:55;;;;;;;;;;;20.20;91.90;;;;;;6277134;22;43382;-79
2023/10/24 00:55:21;;;;;;;;;;;20.50;91.90;;;;;;6277241;22;42665;-77
2023/10/24 00:57:47;;;;;;;;;;;20.70;91.60;;;;;;6276980;22;42959;-75
2023/10/24 01:00:12;;;;;;;;;;;20.70;91.60;;;;;;6277011;22;42906;-75
2023/10/24 01:02:38;;;;;;;;;;;20.60;91.50;;;;;;6276808;22;43384;-76
2023/10/24 01:05:04;;;;;;;;;;;20.70;91.40;;;;;;6277197;22;43183;-75
2023/10/24 01:07:30;;;;;;;;;;;20.60;91.50;;;;;;6276542;22;43371;-75
2023/10/24 01:09:56;;;;;;;;;;;20.70;91.60;;;;;;6277230;22;42815;-79
2023/10/24 01:12:21;;;;;;;;;;;20.70;91.60;;;;;;6249858;22;44862;-75
2023/10/24 01:14:47;;;;;;;;;;;20.60;91.50;;;;;;6276457;22;42935;-75
2023/10/24 01:17:13;;;;;;;;;;;20.70;91.50;;;;;;6276941;22;43495;-75
2023/10/24 01:19:38;;;;;;;;;;;20.70;91.60;;;;;;6277282;22;43141;-75
2023/10/24 01:22:04;;;;;;;;;;;20.70;91.40;;;;;;6276683;22;43469;-77
2023/10/24 01:24:29;;;;;;;;;;;20.60;91.40;;;;;;6276693;22;42850;-77
2023/10/24 01:26:56;;;;;;;;;;;20.80;91.40;;;;;;6276887;22;43141;-75
2023/10/24 01:29:21;;;;;;;;;;;20.70;91.50;;;;;;6277111;22;42898;-77
2023/10/24 01:31:47;;;;;;;;;;;20.50;91.70;;;;;;6276905;22;43841;-76
2023/10/24 01:34:12;;;;;;;;;;;20.50;91.90;;;;;;6276860;22;42918;-78
2023/10/24 01:36:38;;;;;;;;;;;20.40;92.00;;;;;;6276121;22;42953;-75
2023/10/24 01:39:03;;;;;;;;;;;20.40;92.10;;;;;;6250112;22;42927;-75
2023/10/24 01:41:29;;;;;;;;;;;20.30;92.00;;;;;;6276757;22;43381;-74
2023/10/24 01:43:55;;;;;;;;;;;20.20;92.00;;;;;;6276782;22;42774;-80
2023/10/24 01:46:21;;;;;;;;;;;20.30;92.00;;;;;;6277149;22;44451;-75
2023/10/24 01:48:46;;;;;;;;;;;20.20;92.00;;;;;;6276405;22;42917;-77
2023/10/24 01:51:12;;;;;;;;;;;20.20;92.00;;;;;;6276582;22;42902;-75
2023/10/24 01:53:37;;;;;;;;;;;20.20;92.10;;;;;;6277107;22;42875;-75
2023/10/24 01:56:03;;;;;;;;;;;20.30;91.90;;;;;;6276827;22;42949;-75
2023/10/24 01:58:30;;;;;;;;;;;20.50;91.80;;;;;;6277122;22;42941;-73
2023/10/24 02:00:56;;;;;;;;;;;;;;;;;;6250793;22;42935;-80
2023/10/24 02:03:22;;;;;;;;;;;20.50;91.70;;;;;;6277226;22;42687;-75
2023/10/24 02:05:47;;;;;;;;;;;20.60;91.60;;;;;;6276107;22;43686;-82
2023/10/24 02:08:13;;;;;;;;;;;20.60;91.60;;;;;;6275878;22;42886;-77
2023/10/24 02:10:38;;;;;;;;;;;20.40;91.80;;;;;;6274772;22;42883;-74
2023/10/24 02:13:04;;;;;;;;;;;20.40;91.90;;;;;;6277022;22;42827;-74
2023/10/24 02:15:29;;;;;;;;;;;20.50;92.10;;;;;;6276475;22;43498;-75
2023/10/24 02:17:55;;;;;;;;;;;20.50;91.90;;;;;;6276673;22;42756;-77
2023/10/24 02:20:20;;;;;;;;;;;20.40;91.90;;;;;;6275985;22;42891;-74
2023/10/24 02:22:49;;;;;;;;;;;20.30;92.00;;;;;;6275568;22;43130;-74
2023/10/24 02:25:14;;;;;;;;;;;20.40;91.20;;;;;;6275874;22;43515;-79
2023/10/24 02:27:40;;;;;;;;;;;20.40;92.20;;;;;;6276856;22;43574;-75
2023/10/24 02:30:06;;;;;;;;;;;20.20;92.20;;;;;;6276355;22;43331;-75
2023/10/24 02:32:31;;;;;;;;;;;20.30;92.30;;;;;;6276363;22;42786;-76
2023/10/24 02:34:57;;;;;;;;;;;;;;;;;;6276409;22;42887;-80
2023/10/24 02:37:22;;;;;;;;;;;20.10;92.20;;;;;;6275688;22;42607;-75
2023/10/24 02:39:49;;;;;;;;;;;20.20;92.20;;;;;;6275951;22;43632;-75
2023/10/24 02:42:14;;;;;;;;;;;20.20;92.10;;;;;;6276940;22;42797;-78
2023/10/24 02:44:40;;;;;;;;;;;20.00;92.30;;;;;;6276064;22;42902;-74
2023/10/24 02:47:05;;;;;;;;;;;20.10;92.10;;;;;;6275323;22;43084;-76
2023/10/24 02:49:32;;;;;;;;;;;20.00;92.10;;;;;;6249345;22;44672;-80
2023/10/24 02:51:57;;;;;;;;;;;20.30;92.10;;;;;;6276487;22;43128;-76
2023/10/24 02:54:23;;;;;;;;;;;20.60;92.10;;;;;;6275425;22;42894;-75
2023/10/24 02:56:49;;;;;;;;;;;20.30;92.00;;;;;;6248960;22;42827;-75
2023/10/24 02:59:15;;;;;;;;;;;20.30;92.00;;;;;;6276181;22;42890;-75
2023/10/24 03:01:40;;;;;;;;;;;20.30;92.10;;;;;;6277331;22;42914;-75
2023/10/24 03:04:06;;;;;;;;;;;20.40;92.10;;;;;;6277514;22;43424;-76
2023/10/24 03:06:31;;;;;;;;;;;20.40;91.80;;;;;;6278766;22;42791;-75
2023/10/24 03:08:57;;;;;;;;;;;20.50;91.70;;;;;;6279924;22;42893;-76
2023/10/24 03:11:23;;;;;;;;;;;20.50;91.80;;;;;;6279416;22;43031;-76
2023/10/24 03:13:49;;;;;;;;;;;20.60;92.10;;;;;;6279863;22;42746;-76
2023/10/24 03:16:14;;;;;;;;;;;20.30;92.20;;;;;;6278722;22;43112;-75
2023/10/24 03:18:40;;;;;;;;;;;20.20;92.10;;;;;;6277339;22;42847;-76
2023/10/24 03:21:07;;;;;;;;;;;20.20;92.20;;;;;;6281070;22;43009;-77
2023/10/24 03:23:32;;;;;;;;;;;20.10;92.40;;;;;;6277795;22;42921;-79
2023/10/24 03:25:59;;;;;;;;;;;20.20;92.30;;;;;;6278079;22;42803;-76
2023/10/24 03:28:24;;;;;;;;;;;20.00;92.50;;;;;;6277458;22;42879;-75
2023/10/24 03:30:59;;;;;;;;;;;20.10;92.40;;;;;;6277052;22;42922;-75
2023/10/24 03:33:25;;;;;;;;;;;20.10;92.40;;;;;;6276885;22;42912;-79
2023/10/24 03:35:50;;;;;;;;;;;20.10;92.50;;;;;;6276853;22;42880;-76
2023/10/24 03:38:16;;;;;;;;;;;20.30;92.40;;;;;;6277755;22;42946;-75
2023/10/24 03:40:41;;;;;;;;;;;20.30;92.40;;;;;;6277557;22;42862;-75
2023/10/24 03:43:07;;;;;;;;;;;20.40;92.10;;;;;;6277595;22;43785;-75
2023/10/24 03:45:32;;;;;;;;;;;20.20;91.90;;;;;;6277670;22;42926;-75
2023/10/24 03:47:58;;;;;;;;;;;20.30;92.20;;;;;;6277842;22;43438;-77
2023/10/24 03:50:23;;;;;;;;;;;20.30;92.10;;;;;;6277817;22;42881;-74
2023/10/24 03:52:49;;;;;;;;;;;20.30;92.20;;;;;;6277377;22;43959;-74
2023/10/24 03:55:14;;;;;;;;;;;20.10;92.20;;;;;;6250440;22;42785;-76
2023/10/24 03:57:40;;;;;;;;;;;20.30;92.40;;;;;;6277034;22;42696;-79
2023/10/24 04:00:08;;;;;;;;;;;20.00;92.20;;;;;;6277420;22;42914;-76
2023/10/24 04:02:34;;;;;;;;;;;20.10;91.90;;;;;;6277043;22;42999;-74
2023/10/24 04:05:00;;;;;;;;;;;20.20;92.20;;;;;;6277573;22;42817;-74
2023/10/24 04:07:25;;;;;;;;;;;20.10;92.20;;;;;;6276894;22;43126;-78
2023/10/24 04:09:51;;;;;;;;;;;20.10;92.20;;;;;;6251187;22;42887;-79
2023/10/24 04:12:16;;;;;;;;;;;20.10;92.30;;;;;;6276984;22;43561;-75
2023/10/24 04:14:42;;;;;;;;;;;20.00;92.30;;;;;;6277150;22;43029;-79
2023/10/24 04:17:07;;;;;;;;;;;20.00;92.30;;;;;;6276889;22;42996;-75
2023/10/24 04:19:33;;;;;;;;;;;19.90;92.30;;;;;;6276307;22;42854;-76
2023/10/24 04:21:58;;;;;;;;;;;20.10;92.20;;;;;;6276512;22;43703;-76
2023/10/24 04:24:24;;;;;;;;;;;20.20;92.40;;;;;;6276982;22;42818;-74
2023/10/24 04:26:49;;;;;;;;;;;19.80;92.20;;;;;;6277576;22;43136;-75
2023/10/24 04:29:16;;;;;;;;;;;20.10;92.20;;;;;;6277105;22;42984;-77
2023/10/24 04:31:41;;;;;;;;;;;20.00;92.30;;;;;;6276983;22;43343;-74
2023/10/24 04:34:07;;;;;;;;;;;20.10;92.30;;;;;;6277541;22;42895;-77
2023/10/24 04:36:33;;;;;;;;;;;20.00;92.40;;;;;;6277774;22;43200;-75
2023/10/24 04:38:59;;;;;;;;;;;20.00;92.40;;;;;;6277077;22;43057;-75
2023/10/24 04:41:25;;;;;;;;;;;20.00;92.40;;;;;;6276358;22;42902;-74
2023/10/24 04:43:51;;;;;;;;;;;20.20;92.50;;;;;;6277519;22;43014;-75
2023/10/24 04:46:16;;;;;;;;;;;20.00;92.50;;;;;;6277483;22;42909;-80
2023/10/24 04:48:42;;;;;;;;;;;20.00;92.80;;;;;;6277388;22;42847;-74
2023/10/24 04:51:11;;;;;;;;;;;19.90;92.50;;;;;;6276384;22;43472;-78
2023/10/24 04:53:36;;;;;;;;;;;20.10;92.60;;;;;;6276745;22;43007;-82
2023/10/24 04:56:03;;;;;;;;;;;20.10;92.70;;;;;;6276722;22;43024;-77
2023/10/24 04:58:29;;;;;;;;;;;20.10;92.40;;;;;;6275903;22;43045;-75
2023/10/24 05:00:54;;;;;;;;;;;20.00;92.40;;;;;;6276281;22;44027;-79
2023/10/24 05:03:20;;;;;;;;;;;20.00;92.50;;;;;;6274848;22;42965;-75
2023/10/24 05:05:45;;;;;;;;;;;20.00;92.40;;;;;;6275984;22;43027;-76
2023/10/24 05:08:12;;;;;;;;;;;20.20;92.50;;;;;;6278076;22;42795;-75
2023/10/24 05:10:37;;;;;;;;;;;20.00;92.50;;;;;;6277338;22;43066;-77
2023/10/24 05:13:03;;;;;;;;;;;20.20;92.40;;;;;;6276433;22;42780;-75
2023/10/24 05:15:28;;;;;;;;;;;20.10;92.40;;;;;;6275677;22;43504;-78
2023/10/24 05:17:54;;;;;;;;;;;20.10;92.40;;;;;;6278160;22;43130;-75
2023/10/24 05:20:20;;;;;;;;;;;20.20;92.40;;;;;;6276179;22;43398;-75
2023/10/24 05:22:45;;;;;;;;;;;20.20;92.40;;;;;;6277877;22;42768;-81
2023/10/24 05:25:11;;;;;;;;;;;19.70;92.30;;;;;;6276914;22;42903;-76
2023/10/24 05:27:36;;;;;;;;;;;20.30;92.40;;;;;;6276447;22;43157;-83
2023/10/24 05:30:02;;;;;;;;;;;20.30;92.30;;;;;;6277595;22;43650;-75
2023/10/24 05:32:27;;;;;;;;;;;20.30;92.40;;;;;;6278518;22;42967;-79
2023/10/24 05:34:53;;;;;;;;;;;20.20;92.30;;;;;;6281904;22;43485;-79
2023/10/24 05:37:18;;;;;;;;;;;20.30;92.40;;;;;;6291811;22;43035;-78
2023/10/24 05:39:44;;;;;;;;;;;20.10;92.30;;;;;;6282756;22;42796;-76
2023/10/24 05:42:09;;;;;;;;;;;20.50;92.10;;;;;;6281275;22;42840;-83
2023/10/24 05:44:35;;;;;;;;;;;20.40;92.00;;;;;;6279507;22;43358;-78
2023/10/24 05:47:00;;;;;;;;;;;20.40;91.90;;;;;;6277869;22;42882;-82
2023/10/24 05:49:26;;;;;;;;;;;20.50;91.90;;;;;;6277993;22;42747;-79
2023/10/24 05:51:52;;;;;;;;;;;20.30;91.90;;;;;;6277856;22;42970;-76
2023/10/24 05:54:17;;;;;;;;;;;21.00;92.00;;;;;;6277540;22;42890;-80
2023/10/24 05:56:43;;;;;;;;;;;20.60;91.80;;;;;;6277623;22;42827;-85
2023/10/24 05:59:08;;;;;;;;;;;20.30;92.00;;;;;;6275847;22;42774;-79
2023/10/24 06:01:34;;;;;;;;;;;20.20;92.10;;;;;;6276817;22;42693;-90
2023/10/24 06:03:59;;;;;;;;;;;20.20;92.30;;;;;;6276043;22;43621;-79
2023/10/24 06:06:25;;;;;;;;;;;20.20;92.30;;;;;;6278013;22;42782;-83
2023/10/24 06:08:50;;;;;;;;;;;20.10;92.50;;;;;;6276554;22;43568;-85
2023/10/24 06:11:16;;;;;;;;;;;20.10;92.50;;;;;;6277438;22;43074;-80
2023/10/24 06:13:41;;;;;;;;;;;20.20;92.50;;;;;;6276622;22;43410;-88
2023/10/24 06:16:16;;;;;;;;;;;20.30;92.30;;;;;;6250499;22;42838;-88
2023/10/24 06:18:42;;;;;;;;;;;20.30;91.30;;;;;;6277173;22;42914;-87
2023/10/24 06:21:08;;;;;;;;;;;20.30;92.00;;;;;;6277048;22;42908;-92
2023/10/24 06:23:34;;;;;;;;;;;20.40;92.00;;;;;;6276127;22;42993;-90
2023/10/24 06:26:00;;;;;;;;;;;20.40;92.00;;;;;;6276807;22;42788;-79
2023/10/24 06:28:25;;;;;;;;;;;20.40;92.10;;;;;;6276657;22;43582;-81
2023/10/24 06:30:58;;;;;;;;;;;20.20;92.30;;;;;;6275601;22;43055;-81
2023/10/24 06:33:25;;;;;;;;;;;20.30;91.60;;;;;;6276124;22;42819;-90
2023/10/24 06:35:50;;;;;;;;;;;20.20;92.60;;;;;;6270672;22;43031;-77
2023/10/24 06:38:17;;;;;;;;;;;19.90;92.60;;;;;;6247715;22;44371;-88
2023/10/24 06:40:46;;;;;;;;;;;19.90;92.70;;;;;;6274722;22;42998;-85
2023/10/24 06:43:12;;;;;;;;;;;20.00;91.90;;;;;;6276304;22;43237;-85
2023/10/24 06:45:37;;;;;;;;;;;20.10;92.60;;;;;;6276841;22;42914;-87
2023/10/24 06:48:06;;;;;;;;;;;20.10;92.50;;;;;;6275779;22;42830;-85
2023/10/24 06:50:32;;;;;;;;;;;20.20;92.40;;;;;;6276490;22;42970;-87
2023/10/24 06:52:57;;;;;;;;;;;20.10;92.50;;;;;;6275509;22;43607;-78
2023/10/24 06:55:23;;;;;;;;;;;20.30;92.30;;;;;;6275884;22;42887;-80
2023/10/24 06:57:49;;;;;;;;;;;20.40;92.20;;;;;;6249728;22;44581;-80
2023/10/24 07:00:14;;;;;;;;;;;20.30;92.20;;;;;;6278576;22;42894;-82
2023/10/24 07:02:40;;;;;;;;;;;20.30;92.20;;;;;;6277376;22;42931;-79
2023/10/24 07:05:06;;;;;;;;;;;20.30;92.20;;;;;;6277580;22;42848;-80
2023/10/24 07:07:31;;;;;;;;;;;20.30;92.20;;;;;;6277313;22;43612;-79
2023/10/24 07:09:57;;;;;;;;;;;20.40;92.20;;;;;;6277401;22;43186;-83
2023/10/24 07:12:22;;;;;;;;;;;20.40;92.10;;;;;;6250843;22;42975;-86
2023/10/24 07:14:51;;;;;;;;;;;20.40;92.10;;;;;;6251289;22;42782;-83
2023/10/24 07:17:17;;;;;;;;;;;20.30;92.00;;;;;;6277434;22;43268;-84
2023/10/24 07:19:42;;;;;;;;;;;20.40;92.00;;;;;;6250866;22;42973;-82
2023/10/24 07:22:08;;;;;;;;;;;20.40;92.20;;;;;;6277503;22;43586;-86
2023/10/24 07:24:33;;;;;;;;;;;20.20;92.40;;;;;;6275487;22;42941;-84
2023/10/24 07:26:59;;;;;;;;;;;20.30;92.40;;;;;;6277865;22;42852;-83
2023/10/24 07:29:27;;;;;;;;;;;20.20;92.30;;;;;;6249742;22;42851;-91
2023/10/24 07:31:53;;;;;;;;;;;20.30;92.30;;;;;;6275535;22;43436;-83
2023/10/24 07:34:18;;;;;;;;;;;20.30;92.10;;;;;;6276817;22;42897;-82
2023/10/24 07:36:44;;;;;;;;;;;20.20;92.30;;;;;;6276926;22;42830;-82
2023/10/24 07:44:20;;;;;;;;;;;20.50;92.80;;;;;;6244834;22;43701;-78
2023/10/24 08:05:05;;;;;;;;;;;20.40;92.60;;;;;;6278550;22;43049;-78
2023/10/24 08:07:31;;;;;;;;;;;20.40;92.50;;;;;;6279446;22;42775;-78
2023/10/24 08:09:56;;;;;;;;;;;20.30;92.60;;;;;;6280275;22;43001;-78
2023/10/24 08:12:22;;;;;;;;;;;20.20;92.80;;;;;;6283162;22;42890;-80
2023/10/24 08:14:47;;;;;;;;;;;20.20;92.90;;;;;;6251297;22;43929;-79
2023/10/24 08:17:13;;;;;;;;;;;20.00;92.90;;;;;;6277760;22;43017;-79
2023/10/24 08:19:38;;;;;;;;;;;20.20;93.00;;;;;;6276237;22;43432;-80
2023/10/24 08:22:04;;;;;;;;;;;20.20;92.90;;;;;;6277537;22;42988;-79
2023/10/24 08:24:29;;;;;;;;;;;20.30;92.90;;;;;;6277507;22;42780;-79
2023/10/24 08:26:55;;;;;;;;;;;20.20;92.80;;;;;;6278311;22;42693;-79
2023/10/24 08:29:20;;;;;;;;;;;20.30;93.00;;;;;;6277914;22;44144;-79
2023/10/24 08:31:46;;;;;;;;;;;20.30;93.00;;;;;;6251345;22;42883;-79
2023/10/24 08:34:12;;;;;;;;;;;20.30;93.00;;;;;;6277908;22;43505;-79
2023/10/24 08:36:37;;;;;;;;;;;20.20;92.90;;;;;;6277972;22;42838;-79
2023/10/24 08:39:03;;;;;;;;;;;20.30;92.90;;;;;;6276944;22;42886;-79
2023/10/24 08:41:29;;;;;;;;;;;20.10;92.80;;;;;;6279288;22;42885;-77
2023/10/24 08:43:55;;;;;;;;;;;20.20;92.80;;;;;;6276589;22;42979;-78
2023/10/24 08:46:21;;;;;;;;;;;20.20;92.90;;;;;;6276692;22;42974;-78
2023/10/24 08:48:47;;;;;;;;;;;20.20;92.90;;;;;;6277921;22;43025;-76
2023/10/24 08:51:13;;;;;;;;;;;20.10;93.00;;;;;;6279170;22;42933;-78
2023/10/24 08:53:39;;;;;;;;;;;20.10;93.00;;;;;;6278148;22;43535;-78
2023/10/24 08:56:09;;;;;;;;;;;20.10;92.90;;;;;;6277224;22;42891;-79
2023/10/24 08:58:37;;;;;;;;;;;20.30;92.80;;;;;;6275739;22;42898;-78
2023/10/24 09:01:03;;;;;;;;;;;20.40;92.70;;;;;;6278204;22;42869;-78
2023/10/24 09:03:28;;;;;;;;;;;20.40;92.50;;;;;;6278495;22;42894;-79
2023/10/24 09:05:55;;;;;;;;;;;20.30;92.60;;;;;;6277774;22;42993;-78
2023/10/24 09:08:20;;;;;;;;;;;20.30;92.50;;;;;;6276846;22;43882;-78
2023/10/24 09:10:46;;;;;;;;;;;20.50;92.70;;;;;;6277660;22;42882;-78
2023/10/24 09:13:12;;;;;;;;;;;20.40;92.60;;;;;;6277562;22;43354;-78
2023/10/24 09:15:39;;;;;;;;;;;20.30;92.50;;;;;;6278044;22;42779;-78
2023/10/24 09:18:05;;;;;;;;;;;20.50;92.60;;;;;;6250758;22;43519;-77
2023/10/24 09:20:31;;;;;;;;;;;20.40;92.60;;;;;;6279127;22;42887;-78
2023/10/24 09:23:02;;;;;;;;;;;20.40;92.40;;;;;;6278490;22;43090;-79
2023/10/24 09:25:28;;;;;;;;;;;20.40;92.40;;;;;;6277283;22;42875;-79
2023/10/24 09:27:53;;;;;;;;;;;20.30;92.50;;;;;;6277569;22;43456;-79
2023/10/24 09:30:20;;;;;;;;;;;20.50;92.50;;;;;;6279283;22;42930;-79
2023/10/24 09:32:46;;;;;;;;;;;20.40;92.30;;;;;;6277937;22;43129;-79
2023/10/24 09:35:13;;;;;;;;;;;20.40;92.40;;;;;;6278751;22;42922;-80
2023/10/24 09:37:44;;;;;;;;;;;20.40;92.50;;;;;;6278202;22;42986;-80
2023/10/24 09:40:10;;;;;;;;;;;20.40;92.70;;;;;;6278347;22;42828;-78
2023/10/24 10:35:13;;;;;;;;;;;20.50;93.30;;;;;;6314998;22;42758;-80
2023/10/24 10:37:38;;;;;;;;;;;20.50;93.20;;;;;;6322988;22;42771;-78
2023/10/24 10:40:19;;;;;;;;;;;20.40;93.20;;;;;;6319589;22;42709;-78
2023/10/24 10:42:49;;;;;;;;;;;20.40;93.30;;;;;;6311876;22;43010;-80
2023/10/24 10:45:24;;;;;;;;;;;20.40;93.30;;;;;;6279608;22;42989;-79
2023/10/24 10:47:50;;;;;;;;;;;20.40;93.40;;;;;;6279017;22;43252;-79
2023/10/24 10:50:22;;;;;;;;;;;20.50;93.50;;;;;;6279165;22;42790;-79
2023/10/24 10:52:55;;;;;;;;;;;20.20;92.60;;;;;;6278757;22;42876;-79
2023/10/24 10:55:24;;;;;;;;;;;20.30;93.60;;;;;;6278208;22;42792;-79
2023/10/24 10:58:11;;;;;;;;;;;20.40;92.60;;;;;;6277912;22;42878;-78
2023/10/24 11:54:15;;;;;;;;;;;20.40;93.80;;;;;;6310746;22;42816;-79
2023/10/24 12:18:16;;;;;;;;;;;20.80;93.70;;;;;;6309178;22;42873;-81
2023/10/24 12:20:58;;;;;;;;;;;20.50;94.00;;;;;;6308511;22;43015;-84
2023/10/24 12:41:34;;;;;;;;;;;20.80;94.30;;;;;;6296389;22;43581;-84
2023/10/24 12:44:40;;;;;;;;;;;20.80;94.50;;;;;;6280097;22;42968;-84
2023/10/24 12:54:03;;;;;;;;;;;20.70;94.80;;;;;;6279266;22;42992;-81
2023/10/24 13:03:30;;;;;;;;;;;20.70;94.80;;;;;;6281061;22;42793;-81
2023/10/24 13:05:56;;;;;;;;;;;20.60;94.70;;;;;;6290146;22;42718;-80
2023/10/24 13:08:21;;;;;;;;;;;20.60;94.80;;;;;;6285423;22;42905;-80
2023/10/24 13:10:47;;;;;;;;;;;20.70;94.80;;;;;;6280976;22;43373;-80
2023/10/24 13:13:13;;;;;;;;;;;20.60;94.60;;;;;;6251786;22;42944;-82
2023/10/24 13:15:38;;;;;;;;;;;20.60;94.60;;;;;;6278882;22;43629;-77
2023/10/24 13:18:04;;;;;;;;;;;20.70;94.50;;;;;;6281561;22;43024;-81
2023/10/24 13:20:29;;;;;;;;;;;20.60;94.30;;;;;;6277263;22;43497;-79
2023/10/24 13:22:55;;;;;;;;;;;20.80;94.30;;;;;;6276098;22;42966;-77
2023/10/24 13:25:20;;;;;;;;;;;20.70;94.30;;;;;;6277836;22;43888;-80
2023/10/24 13:27:46;;;;;;;;;;;20.70;94.30;;;;;;6277240;22;42910;-78
2023/10/24 13:30:12;;;;;;;;;;;20.70;94.30;;;;;;6277447;22;42880;-76
2023/10/24 13:32:38;;;;;;;;;;;20.60;94.50;;;;;;6278290;22;43063;-77
2023/10/24 13:35:04;;;;;;;;;;;20.70;94.40;;;;;;6278023;22;43475;-75
2023/10/24 13:37:30;;;;;;;;;;;20.70;94.50;;;;;;6277848;22;42702;-76
2023/10/24 13:39:55;;;;;;;;;;;20.50;94.50;;;;;;6278339;22;42894;-76
2023/10/24 13:42:21;;;;;;;;;;;20.60;94.70;;;;;;6278773;22;42861;-76
2023/10/24 13:44:46;;;;;;;;;;;20.60;94.60;;;;;;6277692;22;43476;-77
2023/10/24 13:47:12;;;;;;;;;;;20.60;94.50;;;;;;6277908;22;42906;-76
2023/10/24 13:49:37;;;;;;;;;;;20.70;94.40;;;;;;6278907;22;42930;-76
2023/10/24 13:52:04;;;;;;;;;;;20.80;94.30;;;;;;6278486;22;42886;-76
2023/10/24 13:54:29;;;;;;;;;;;20.60;94.20;;;;;;6280071;22;43691;-76
2023/10/24 13:56:55;;;;;;;;;;;20.80;94.50;;;;;;6277832;22;42880;-76
2023/10/24 13:59:20;;;;;;;;;;;20.80;94.60;;;;;;6279438;22;42879;-76
2023/10/24 14:01:46;;;;;;;;;;;20.70;94.60;;;;;;6279045;22;43023;-76
2023/10/24 14:04:11;;;;;;;;;;;20.50;94.50;;;;;;6278846;22;43847;-75
2023/10/24 14:06:37;;;;;;;;;;;20.70;94.40;;;;;;6278165;22;42810;-78
2023/10/24 14:09:04;;;;;;;;;;;20.70;94.40;;;;;;6250765;22;42788;-76
2023/10/24 14:11:30;;;;;;;;;;;20.70;94.50;;;;;;6278261;22;42883;-76
2023/10/24 14:13:55;;;;;;;;;;;20.70;94.60;;;;;;6250793;22;44226;-76
2023/10/24 14:16:21;;;;;;;;;;;20.60;94.70;;;;;;6278204;22;42660;-77
2023/10/24 14:18:46;;;;;;;;;;;20.80;94.80;;;;;;6277063;22;43773;-77
2023/10/24 14:21:12;;;;;;;;;;;20.80;94.90;;;;;;6277939;22;42840;-76
2023/10/24 14:23:37;;;;;;;;;;;20.80;94.90;;;;;;6277387;22;42886;-78
2023/10/24 14:26:03;;;;;;;;;;;20.80;95.00;;;;;;6277649;22;42938;-76
2023/10/24 14:28:30;;;;;;;;;;;20.80;95.10;;;;;;6278562;22;43543;-76
2023/10/24 14:30:55;;;;;;;;;;;20.90;95.00;;;;;;6277523;22;42848;-76
2023/10/24 14:33:21;;;;;;;;;;;20.60;95.10;;;;;;6277340;22;44310;-76
2023/10/24 14:35:47;;;;;;;;;;;20.60;95.10;;;;;;6277473;22;42927;-77
2023/10/24 14:38:12;;;;;;;;;;;20.50;95.10;;;;;;6276954;22;42939;-76
2023/10/24 14:40:39;;;;;;;;;;;20.80;95.10;;;;;;6277547;22;42898;-78
2023/10/24 14:43:06;;;;;;;;;;;20.60;95.00;;;;;;6276793;22;42955;-76
2023/10/24 14:45:32;;;;;;;;;;;20.70;94.80;;;;;;6276413;22;42917;-75
2023/10/24 14:47:59;;;;;;;;;;;20.60;94.70;;;;;;6276230;22;42937;-78
2023/10/24 14:50:25;;;;;;;;;;;20.80;94.80;;;;;;6276423;22;43018;-75
2023/10/24 14:52:50;;;;;;;;;;;20.60;94.80;;;;;;6277256;22;42889;-76
2023/10/24 14:55:16;;;;;;;;;;;20.90;95.00;;;;;;6276815;22;42768;-78
2023/10/24 14:57:41;;;;;;;;;;;20.80;94.90;;;;;;6278533;22;42780;-76
2023/10/24 15:00:08;;;;;;;;;;;20.70;94.90;;;;;;6278776;22;42780;-76
2023/10/24 15:02:34;;;;;;;;;;;20.60;94.50;;;;;;6279115;22;44652;-75
2023/10/24 15:04:59;;;;;;;;;;;20.60;94.80;;;;;;6278149;22;42867;-76
2023/10/24 15:07:25;;;;;;;;;;;20.70;94.90;;;;;;6278031;22;43176;-76
2023/10/24 15:09:51;;;;;;;;;;;20.90;95.20;;;;;;6279071;22;42874;-77
2023/10/24 15:12:16;;;;;;;;;;;20.90;95.10;;;;;;6277495;22;43609;-76
2023/10/24 15:14:42;;;;;;;;;;;20.70;95.20;;;;;;6278897;22;43001;-77
2023/10/24 15:17:09;;;;;;;;;;;20.60;95.30;;;;;;6278977;22;43884;-76
2023/10/24 15:19:35;;;;;;;;;;;20.60;95.30;;;;;;6278389;22;42863;-76
2023/10/24 15:22:01;;;;;;;;;;;20.70;95.30;;;;;;6278961;22;42869;-77
2023/10/24 15:24:26;;;;;;;;;;;20.60;95.20;;;;;;6278711;22;42879;-76
2023/10/24 15:26:52;;;;;;;;;;;20.70;95.30;;;;;;6278911;22;42867;-76
2023/10/24 15:29:17;;;;;;;;;;;20.70;95.40;;;;;;6277140;22;42883;-76
2023/10/24 15:31:43;;;;;;;;;;;20.60;95.30;;;;;;6278255;22;43333;-75
2023/10/24 15:34:08;;;;;;;;;;;20.60;95.20;;;;;;6288079;22;42917;-78
2023/10/24 15:36:35;;;;;;;;;;;20.70;95.20;;;;;;6259490;22;44054;-76
2023/10/24 15:39:00;;;;;;;;;;;20.70;95.30;;;;;;6285151;22;42673;-75
2023/10/24 15:41:26;;;;;;;;;;;20.60;95.20;;;;;;6282233;22;42669;-76
2023/10/24 15:43:52;;;;;;;;;;;;;;;;;;6279020;22;42696;-74
2023/10/24 15:46:20;;;;;;;;;;;20.70;95.30;;;;;;6279379;22;42867;-77
2023/10/24 15:48:51;;;;;;;;;;;20.70;95.10;;;;;;6252170;22;43004;-74
2023/10/24 15:51:17;;;;;;;;;;;20.80;94.30;;;;;;6278028;22;42696;-77
2023/10/24 15:53:43;;;;;;;;;;;20.70;95.20;;;;;;6277823;22;42880;-75
2023/10/24 15:56:08;;;;;;;;;;;20.50;95.20;;;;;;6277106;22;43198;-76
2023/10/24 15:58:34;;;;;;;;;;;20.60;95.20;;;;;;6277793;22;42874;-75
2023/10/24 16:01:09;;;;;;;;;;;20.70;95.10;;;;;;6278735;22;43266;-76
2023/10/24 16:03:35;;;;;;;;;;;20.50;95.00;;;;;;6277781;22;42874;-75
2023/10/24 16:06:00;;;;;;;;;;;20.70;95.20;;;;;;6277049;22;43543;-77
2023/10/24 16:08:26;;;;;;;;;;;20.70;95.20;;;;;;6251431;22;43218;-75
2023/10/24 16:10:51;;;;;;;;;;;20.70;95.10;;;;;;6277476;22;42862;-76
2023/10/24 16:13:17;;;;;;;;;;;20.70;95.20;;;;;;6277817;22;43054;-76
2023/10/24 16:15:42;;;;;;;;;;;20.60;95.30;;;;;;6278560;22;42914;-75
2023/10/24 16:18:09;;;;;;;;;;;20.70;95.50;;;;;;6278678;22;42961;-76
2023/10/24 16:20:34;;;;;;;;;;;20.70;95.20;;;;;;6278137;22;43302;-75
2023/10/24 16:23:00;;;;;;;;;;;20.60;95.20;;;;;;6278086;22;42965;-74
2023/10/24 16:25:26;;;;;;;;;;;20.60;95.20;;;;;;6279580;22;43373;-74
2023/10/24 16:27:53;;;;;;;;;;;20.80;95.30;;;;;;6277403;22;42787;-75
2023/10/24 16:30:19;;;;;;;;;;;20.70;95.40;;;;;;6276695;22;43384;-75
2023/10/24 16:32:45;;;;;;;;;;;20.60;95.40;;;;;;6277872;22;42800;-75
2023/10/24 16:35:10;;;;;;;;;;;20.50;95.50;;;;;;6278078;22;44079;-77
2023/10/24 16:37:36;;;;;;;;;;;20.50;95.60;;;;;;6278265;22;42791;-74
2023/10/24 16:40:01;;;;;;;;;;;20.60;95.60;;;;;;6278017;22;42982;-74
2023/10/24 16:42:27;;;;;;;;;;;20.50;95.50;;;;;;6302048;22;42945;-77
2023/10/24 16:44:52;;;;;;;;;;;20.60;95.40;;;;;;6309458;22;42818;-79
2023/10/24 16:47:18;;;;;;;;;;;20.70;95.50;;;;;;6311465;22;42787;-77
2023/10/24 16:49:43;;;;;;;;;;;20.60;95.40;;;;;;6310769;22;43449;-74
2023/10/24 16:52:09;;;;;;;;;;;20.60;95.30;;;;;;6308809;22;42981;-75
2023/10/24 16:54:35;;;;;;;;;;;;;;;;;;6308464;22;42972;-75
2023/10/24 16:57:02;;;;;;;;;;;20.70;95.30;;;;;;6311071;22;42882;-75
2023/10/24 16:59:27;;;;;;;;;;;20.70;95.30;;;;;;6308808;22;43384;-78
2023/10/24 17:01:53;;;;;;;;;;;20.60;95.30;;;;;;6309194;22;42808;-75
2023/10/24 17:04:18;;;;;;;;;;;20.60;95.20;;;;;;6308873;22;43559;-76
2023/10/24 17:06:44;;;;;;;;;;;20.60;95.30;;;;;;6308920;22;42892;-75
2023/10/24 17:09:10;;;;;;;;;;;20.60;95.40;;;;;;6308063;22;42960;-75
2023/10/24 17:11:36;;;;;;;;;;;20.60;95.20;;;;;;6308558;22;42980;-75
2023/10/24 17:14:03;;;;;;;;;;;20.70;95.20;;;;;;6308331;22;42917;-75
2023/10/24 17:16:29;;;;;;;;;;;20.50;95.10;;;;;;6309023;22;42964;-79